Latest Weather Observations for Wattamolla

IDN60801

Issued at 11:32 am EST Saturday 25 April 2015 (issued every 30 minutes, with the page automatically refreshed every 10 minutes)

About weather observations | Map of weather stations | Latest weather observations for NSW | Other Formats
Station Details ID: 066208 Name: WATTAMOLLA AWS Lat: -34.14 Lon: 151.12 Height: 44.0 m
Data from the previous 72 hours. | See also: Recent months for locations in New South Wales
Date/Time
EST
Temp
°C
App
Temp
°C
Dew
Point
Rel
Hum
%
Delta-T
°C
Wind Press
QNH
hPa
Press
MSL
hPa
Rain
since 9 am
mm
Dir
 
Spd
km/h
Gust
km/h
Spd
kts
Gust
kts
25/11:30am - - - - - S 7 11 4 6 - - -
25/11:00am - - - - - WSW 9 17 5 9 - - -
25/08:00am - - - - - NW 17 20 9 11 - - -
25/07:30am - - - - - NW 13 17 7 9 - - -
25/07:00am - - - - - W 13 17 7 9 - - -
25/06:30am - - - - - W 9 17 5 9 - - -
25/06:00am - - - - - WNW 15 17 8 9 - - -
25/05:30am - - - - - WNW 15 17 8 9 - - -
25/03:00am - - - - - W 13 - 7 - - - -
25/02:00am - - - - - WNW 15 17 8 9 - - -
25/01:30am - - - - - NW 11 13 6 7 - - -
25/01:00am - - - - - WNW 7 11 4 6 - - -
25/12:00am - - - - - W 17 19 9 10 - - -
 
Date/Time
EST
Temp
°C
App
Temp
°C
Dew
Point
Rel
Hum
%
Delta-T
°C
Wind Press
QNH
hPa
Press
MSL
hPa
Rain
since 9 am
mm
Dir
 
Spd
km/h
Gust
km/h
Spd
kts
Gust
kts
24/11:30pm - - - - - W 15 17 8 9 - - -
24/11:00pm - - - - - WNW 15 19 8 10 - - -
24/10:30pm - - - - - WNW 17 19 9 10 - - -
24/10:00pm - - - - - WNW 17 24 9 13 - - -
24/08:00pm - - - - - WNW 9 15 5 8 - - -
24/07:30pm - - - - - WSW 11 13 6 7 - - -
24/07:00pm - - - - - W 11 13 6 7 - - -
24/06:30pm - - - - - NNW 9 9 5 5 - - -
24/06:00pm - - - - - NNW 7 11 4 6 - - -
24/05:30pm - - - - - NNW 7 9 4 5 - - -
24/04:00pm - - - - - NE 9 13 5 7 - - -
24/03:30pm - - - - - ENE 11 17 6 9 - - -
24/03:00pm - - - - - NNE 4 9 2 5 - - -
24/02:30pm - - - - - NE 9 15 5 8 - - -
24/02:00pm - - - - - NE 11 19 6 10 - - -
24/01:30pm - - - - - NNW 9 13 5 7 - - -
24/01:00pm - - - - - N 11 17 6 9 - - -
24/12:30pm - - - - - NNW 13 20 7 11 - - -
24/12:00pm - - - - - N 11 19 6 10 - - -
24/11:30am - - - - - NW 13 19 7 10 - - -
24/11:00am - - - - - NNW 13 19 7 10 - - -
24/10:30am - - - - - NW 15 19 8 10 - - -
24/10:00am - - - - - NNW 19 26 10 14 - - -
24/09:30am - - - - - NNW 13 19 7 10 - - -
24/09:00am - - - - - NNW 13 20 7 11 - - -
24/08:30am - - - - - NNW 11 19 6 10 - - -
24/08:00am - - - - - NW 13 17 7 9 - - -
24/07:30am - - - - - NW 11 17 6 9 - - -
24/07:00am - - - - - WNW 6 11 3 6 - - -
24/06:30am - - - - - NNW 13 17 7 9 - - -
24/06:00am - - - - - NW 11 13 6 7 - - -
24/05:30am - - - - - NNW 2 9 1 5 - - -
24/05:00am - - - - - CALM 0 0 0 0 - - -
24/04:30am - - - - - NNW 9 11 5 6 - - -
24/04:00am - - - - - WNW 9 13 5 7 - - -
24/03:30am - - - - - N 6 9 3 5 - - -
24/03:00am - - - - - NNW 13 13 7 7 - - -
24/02:30am - - - - - NW 17 19 9 10 - - -
24/02:00am - - - - - NW 15 19 8 10 - - -
24/01:30am - - - - - WNW 15 19 8 10 - - -
24/01:00am - - - - - NW 13 15 7 8 - - -
24/12:30am - - - - - NW 11 15 6 8 - - -
24/12:00am - - - - - NW 15 17 8 9 - - -
 
Date/Time
EST
Temp
°C
App
Temp
°C
Dew
Point
Rel
Hum
%
Delta-T
°C
Wind Press
QNH
hPa
Press
MSL
hPa
Rain
since 9 am
mm
Dir
 
Spd
km/h
Gust
km/h
Spd
kts
Gust
kts
23/11:30pm - - - - - WNW 11 13 6 7 - - -
23/11:00pm - - - - - WNW 11 13 6 7 - - -
23/10:30pm - - - - - WNW 13 15 7 8 - - -
23/10:00pm - - - - - NW 13 15 7 8 - - -
23/09:30pm - - - - - WNW 9 11 5 6 - - -
23/09:00pm - - - - - NW 11 13 6 7 - - -
23/08:30pm - - - - - NW 11 13 6 7 - - -
23/08:00pm - - - - - NW 9 11 5 6 - - -
23/07:30pm - - - - - NW 6 9 3 5 - - -
23/07:00pm - - - - - SSW 4 9 2 5 - - -
23/06:30pm - - - - - S 11 17 6 9 - - -
23/06:00pm - - - - - SSE 11 13 6 7 - - -
23/05:30pm - - - - - SSE 11 17 6 9 - - -
23/05:00pm - - - - - S 13 17 7 9 - - -
23/04:30pm - - - - - SSE 15 17 8 9 - - -
23/04:00pm - - - - - S 13 15 7 8 - - -
23/03:30pm - - - - - S 19 20 10 11 - - -
23/03:00pm - - - - - S 19 22 10 12 - - -
23/02:30pm - - - - - S 17 22 9 12 - - -
23/02:00pm - - - - - SSE 20 26 11 14 - - -
23/01:30pm - - - - - S 20 26 11 14 - - -
23/01:00pm - - - - - S 20 24 11 13 - - -
23/12:30pm - - - - - S 22 26 12 14 - - -
23/12:00pm - - - - - S 24 28 13 15 - - -
23/11:30am - - - - - S 19 28 10 15 - - -
23/10:30am - - - - - S 32 37 17 20 - - -
23/10:00am - - - - - S 28 32 15 17 - - -
23/09:30am - - - - - S 26 32 14 17 - - -
23/09:00am - - - - - S 22 30 12 16 - - -
23/08:30am - - - - - S 26 33 14 18 - - -
23/08:00am - - - - - S 20 32 11 17 - - -
23/07:30am - - - - - S 17 26 9 14 - - -
23/07:00am - - - - - SSW 17 26 9 14 - - -
23/06:30am - - - - - SW 15 19 8 10 - - -
23/06:00am - - - - - S 30 37 16 20 - - -
23/05:30am - - - - - S 15 30 8 16 - - -
23/05:00am - - - - - S 17 35 9 19 - - -
23/04:30am - - - - - S 30 33 16 18 - - -
23/04:00am - - - - - S 28 32 15 17 - - -
23/03:30am - - - - - S 30 35 16 19 - - -
23/03:00am - - - - - S 35 39 19 21 - - -
23/02:30am - - - - - S 30 35 16 19 - - -
23/02:00am - - - - - S 24 33 13 18 - - -
23/01:30am - - - - - - - - - - - - -
23/01:00am - - - - - SSW 20 33 11 18 - - -
23/12:30am - - - - - S 28 43 15 23 - - -
23/12:00am - - - - - S 20 35 11 19 - - -
 
Date/Time
EST
Temp
°C
App
Temp
°C
Dew
Point
Rel
Hum
%
Delta-T
°C
Wind Press
QNH
hPa
Press
MSL
hPa
Rain
since 9 am
mm
Dir
 
Spd
km/h
Gust
km/h
Spd
kts
Gust
kts
22/11:30pm - - - - - S 26 37 14 20 - - -
22/11:00pm - - - - - S 37 48 20 26 - - -
22/10:30pm - - - - - S 19 39 10 21 - - -
22/10:00pm - - - - - SSW 22 35 12 19 - - -
22/09:30pm - - - - - S 32 48 17 26 - - -
22/09:14pm - - - - - S 41 59 22 32 - - -
22/09:00pm - - - - - S 46 61 25 33 - - -
22/08:39pm - - - - - S 43 61 23 33 - - -
22/08:30pm - - - - - S 48 65 26 35 - - -
22/08:08pm - - - - - S 43 61 23 33 - - -
22/08:00pm - - - - - S 54 70 29 38 - - -
22/07:30pm - - - - - S 65 74 35 40 - - -
22/07:12pm - - - - - S 63 82 34 44 - - -
22/07:00pm - - - - - S 69 82 37 44 - - -
22/06:45pm - - - - - S 65 83 35 45 - - -
22/06:30pm - - - - - S 37 72 20 39 - - -
22/06:06pm - - - - - S 33 52 18 28 - - -
22/06:00pm - - - - - S 35 52 19 28 - - -
22/05:30pm - - - - - S 39 57 21 31 - - -
22/05:02pm - - - - - S 41 59 22 32 - - -
22/05:00pm - - - - - S 43 59 23 32 - - -
22/04:47pm - - - - - S 54 72 29 39 - - -
22/04:30pm - - - - - S 57 69 31 37 - - -
22/04:09pm - - - - - S 56 74 30 40 - - -
22/04:00pm - - - - - S 65 78 35 42 - - -
22/03:33pm - - - - - S 59 78 32 42 - - -
22/03:30pm - - - - - S 61 78 33 42 - - -
22/03:00pm - - - - - S 69 80 37 43 - - -
22/02:38pm - - - - - S 67 85 36 46 - - -
22/02:30pm - - - - - S 69 85 37 46 - - -
22/02:12pm - - - - - S 52 80 28 43 - - -
22/02:10pm - - - - - S 46 74 25 40 - - -
22/02:00pm - - - - - S 35 56 19 30 - - -
22/01:46pm - - - - - S 50 78 27 42 - - -
22/01:43pm - - - - - S 61 83 33 45 - - -
22/01:42pm - - - - - S 65 83 35 45 - - -
22/01:30pm - - - - - S 67 82 36 44 - - -
22/01:00pm - - - - - S 57 78 31 42 - - -
22/12:30pm - - - - - S 56 74 30 40 - - -
22/12:01pm - - - - - S 56 87 30 47 - - -
22/12:00pm - - - - - S 54 87 29 47 - - -
22/11:58am - - - - - S 46 87 25 47 - - -
22/11:48am - - - - - S 63 83 34 45 - - -

Other Formats:

Comma delimited format used in spreadsheet applications
http://www.bom.gov.au/fwo/IDN60801/IDN60801.95752.axf

JavaScript Object Notation format (JSON) in row-major order
http://www.bom.gov.au/fwo/IDN60801/IDN60801.95752.json